createdAt,value
2018-02-09T00:00:05.745Z,49.73
2018-02-09T00:01:05.739Z,50.11
2018-02-09T00:02:05.730Z,50.11
2018-02-09T00:03:05.723Z,50.11
2018-02-09T00:04:05.712Z,50.30
2018-02-09T00:05:05.705Z,50.69
2018-02-09T00:06:05.698Z,50.59
2018-02-09T00:07:05.695Z,50.59
2018-02-09T00:08:05.676Z,50.49
2018-02-09T00:09:05.678Z,50.40
2018-02-09T00:10:05.667Z,50.40
2018-02-09T00:11:05.669Z,50.37
2018-02-09T00:12:05.657Z,50.40
2018-02-09T00:13:05.642Z,50.40
2018-02-09T00:14:05.638Z,50.27
2018-02-09T00:15:05.629Z,50.49
2018-02-09T00:16:05.619Z,50.40
2018-02-09T00:17:05.612Z,50.18
2018-02-09T00:18:05.610Z,50.18
2018-02-09T00:19:05.600Z,50.27
2018-02-09T00:20:05.589Z,50.49
2018-02-09T00:21:05.583Z,50.49
2018-02-09T00:22:05.576Z,50.47
2018-02-09T00:23:05.566Z,50.37
2018-02-09T00:24:05.558Z,50.49
2018-02-09T00:25:05.551Z,50.40
2018-02-09T00:26:05.542Z,50.37
2018-02-09T00:27:05.533Z,50.27
2018-02-09T00:28:05.526Z,50.37
2018-02-09T00:29:05.518Z,50.37
2018-02-09T00:30:05.511Z,50.76
2018-02-09T00:31:05.503Z,50.78
2018-02-09T00:32:05.495Z,50.76
2018-02-09T00:33:05.486Z,50.76
2018-02-09T00:34:05.485Z,50.78
2018-02-09T00:35:05.470Z,50.85
2018-02-09T00:36:05.465Z,50.76
2018-02-09T00:37:05.464Z,50.98
2018-02-09T00:38:05.448Z,50.69
2018-02-09T00:39:05.439Z,50.57
2018-02-09T00:40:05.443Z,50.40
2018-02-09T00:41:05.427Z,50.69
2018-02-09T00:42:05.416Z,50.47
2018-02-09T00:43:05.412Z,50.49
2018-02-09T00:44:05.404Z,50.49
2018-02-09T00:45:05.393Z,50.78
2018-02-09T00:46:05.385Z,50.98
2018-02-09T00:47:05.380Z,50.49
2018-02-09T00:48:05.379Z,50.49
2018-02-09T00:49:05.363Z,50.59
2018-02-09T00:50:05.355Z,50.47
2018-02-09T00:51:05.348Z,50.49
2018-02-09T00:52:05.337Z,50.49
2018-02-09T00:53:05.331Z,50.49
2018-02-09T00:54:05.324Z,50.49
2018-02-09T00:55:05.317Z,50.66
2018-02-09T00:56:05.306Z,50.69
2018-02-09T00:57:05.303Z,50.49
2018-02-09T00:58:05.292Z,50.49
2018-02-09T00:59:05.284Z,50.57
2018-02-09T01:00:05.278Z,50.49
2018-02-09T01:01:05.268Z,50.49
2018-02-09T01:02:05.261Z,50.49
2018-02-09T01:03:05.251Z,50.49
2018-02-09T01:04:05.250Z,50.49
2018-02-09T01:05:05.236Z,50.59
2018-02-09T01:06:05.229Z,50.49
2018-02-09T01:07:05.232Z,50.78
2018-02-09T01:08:05.216Z,50.88
2018-02-09T01:09:05.207Z,50.37
2018-02-09T01:10:05.193Z,50.95
2018-02-09T01:11:05.193Z,50.59
2018-02-09T01:12:05.190Z,50.59
2018-02-09T01:13:05.179Z,50.78
2018-02-09T01:14:05.167Z,50.88
2018-02-09T01:15:05.159Z,50.78
2018-02-09T01:16:05.150Z,50.69
2018-02-09T01:17:05.143Z,50.69
2018-02-09T01:18:05.135Z,50.69
2018-02-09T01:19:05.131Z,50.76
2018-02-09T01:20:05.123Z,50.85
2018-02-09T01:21:05.111Z,50.88
2018-02-09T01:22:05.104Z,50.85
2018-02-09T01:23:05.096Z,50.57
2018-02-09T01:24:05.087Z,50.88
2018-02-09T01:25:05.098Z,50.88
2018-02-09T01:26:05.072Z,50.66
2018-02-09T01:27:05.064Z,50.57
2018-02-09T01:28:05.095Z,50.66
2018-02-09T01:29:05.094Z,50.57
2018-02-09T01:30:05.041Z,50.85
2018-02-09T01:31:05.034Z,50.85
2018-02-09T01:32:05.024Z,50.85
2018-02-09T01:33:05.041Z,50.85
2018-02-09T01:34:05.012Z,50.95
2018-02-09T01:35:04.998Z,50.85
2018-02-09T01:36:04.989Z,50.76
2018-02-09T01:37:04.996Z,50.95
2018-02-09T01:38:04.984Z,50.85
2018-02-09T01:39:04.971Z,50.95
2018-02-09T01:40:04.963Z,50.85
2018-02-09T01:41:04.954Z,50.85
2018-02-09T01:42:04.948Z,50.95
2018-02-09T01:43:04.939Z,50.85
2018-02-09T01:44:04.938Z,50.85
2018-02-09T01:45:04.924Z,50.85
2018-02-09T01:46:04.916Z,50.85
2018-02-09T01:47:04.909Z,50.95
2018-02-09T01:48:04.898Z,50.85
2018-02-09T01:49:04.893Z,50.85
2018-02-09T01:50:04.885Z,50.85
2018-02-09T01:51:04.876Z,51.05
2018-02-09T01:52:04.868Z,50.85
2018-02-09T01:53:04.861Z,50.85
2018-02-09T01:54:04.854Z,51.05
2018-02-09T01:55:04.843Z,50.76
2018-02-09T01:56:04.840Z,50.85
2018-02-09T01:57:04.829Z,50.85
2018-02-09T01:58:04.822Z,50.85
2018-02-09T01:59:04.812Z,50.95
2018-02-09T02:00:04.808Z,50.98
2018-02-09T02:01:04.796Z,50.85
2018-02-09T02:02:04.786Z,50.85
2018-02-09T02:03:04.789Z,50.85
2018-02-09T02:04:04.777Z,50.78
2018-02-09T02:05:04.766Z,50.98
2018-02-09T02:06:04.758Z,50.88
2018-02-09T02:07:04.751Z,50.85
2018-02-09T02:08:04.741Z,50.98
2018-02-09T02:09:04.739Z,51.14
2018-02-09T02:10:04.727Z,50.88
2018-02-09T02:11:04.719Z,50.98
2018-02-09T02:12:04.710Z,51.26
2018-02-09T02:13:04.702Z,51.56
2018-02-09T02:14:04.697Z,51.36
2018-02-09T02:15:04.688Z,51.46
2018-02-09T02:16:04.681Z,51.07
2018-02-09T02:17:04.671Z,50.98
2018-02-09T02:18:04.657Z,50.98
2018-02-09T02:19:04.659Z,51.26
2018-02-09T02:20:04.648Z,51.24
2018-02-09T02:21:04.640Z,51.17
2018-02-09T02:22:04.631Z,51.17
2018-02-09T02:23:04.624Z,51.17
2018-02-09T02:24:04.615Z,51.17
2018-02-09T02:25:04.609Z,51.14
2018-02-09T02:26:04.601Z,51.17
2018-02-09T02:27:04.593Z,51.17
2018-02-09T02:28:04.586Z,51.14
2018-02-09T02:29:04.577Z,51.17
2018-02-09T02:30:04.571Z,51.17
2018-02-09T02:31:04.566Z,51.26
2018-02-09T02:32:04.553Z,51.07
2018-02-09T02:33:04.548Z,51.07
2018-02-09T02:34:04.546Z,51.07
2018-02-09T02:35:04.532Z,51.36
2018-02-09T02:36:04.523Z,51.36
2018-02-09T02:37:04.514Z,51.07
2018-02-09T02:38:04.511Z,50.78
2018-02-09T02:39:04.499Z,50.88
2018-02-09T02:40:04.498Z,51.36
2018-02-09T02:41:04.486Z,51.46
2018-02-09T02:42:04.523Z,51.26
2018-02-09T02:43:04.470Z,51.07
2018-02-09T02:44:04.461Z,51.07
2018-02-09T02:45:04.452Z,51.17
2018-02-09T02:46:04.448Z,51.07
2018-02-09T02:47:04.437Z,51.07
2018-02-09T02:48:04.432Z,51.26
2018-02-09T02:49:04.420Z,50.78
2018-02-09T02:50:04.414Z,51.07
2018-02-09T02:51:04.405Z,51.24
2018-02-09T02:52:04.399Z,51.07
2018-02-09T02:53:04.390Z,51.07
2018-02-09T02:54:04.383Z,51.56
2018-02-09T02:55:04.380Z,51.43
2018-02-09T02:56:04.366Z,50.76
2018-02-09T02:57:04.359Z,51.43
2018-02-09T02:58:04.352Z,51.43
2018-02-09T02:59:04.344Z,51.53
2018-02-09T03:00:04.335Z,51.53
2018-02-09T03:01:04.327Z,51.43
2018-02-09T03:02:04.320Z,51.43
2018-02-09T03:03:04.315Z,51.34
2018-02-09T03:04:04.297Z,51.24
2018-02-09T03:05:04.294Z,51.34
2018-02-09T03:06:04.287Z,51.34
2018-02-09T03:07:04.278Z,51.53
2018-02-09T03:08:04.272Z,51.43
2018-02-09T03:09:04.264Z,51.82
2018-02-09T03:10:04.255Z,51.72
2018-02-09T03:11:04.247Z,51.82
2018-02-09T03:12:04.243Z,51.53
2018-02-09T03:13:04.240Z,51.62
2018-02-09T03:14:04.234Z,51.62
2018-02-09T03:15:04.219Z,51.72
2018-02-09T03:16:04.209Z,51.72
2018-02-09T03:17:04.202Z,51.53
2018-02-09T03:18:04.197Z,51.62
2018-02-09T03:19:04.188Z,51.62
2018-02-09T03:20:04.180Z,51.53
2018-02-09T03:21:04.170Z,51.53
2018-02-09T03:22:04.159Z,51.62
2018-02-09T03:23:04.154Z,51.62
2018-02-09T03:24:04.144Z,51.62
2018-02-09T03:25:04.140Z,51.62
2018-02-09T03:26:04.137Z,51.72
2018-02-09T03:27:04.123Z,51.72
2018-02-09T03:28:04.114Z,51.62
2018-02-09T03:29:04.106Z,51.34
2018-02-09T03:30:04.102Z,51.62
2018-02-09T03:31:04.090Z,51.53
2018-02-09T03:32:04.082Z,51.53
2018-02-09T03:33:04.086Z,51.43
2018-02-09T03:34:04.065Z,51.62
2018-02-09T03:35:04.057Z,51.72
2018-02-09T03:36:04.049Z,51.53
2018-02-09T03:37:04.042Z,51.34
2018-02-09T03:38:04.034Z,51.24
2018-02-09T03:39:04.026Z,51.34
2018-02-09T03:40:04.017Z,51.43
2018-02-09T03:41:04.009Z,51.43
2018-02-09T03:42:04.003Z,51.34
2018-02-09T03:43:03.994Z,51.92
2018-02-09T03:44:03.988Z,51.24
2018-02-09T03:45:03.981Z,51.82
2018-02-09T03:46:03.967Z,51.43
2018-02-09T03:47:03.964Z,51.62
2018-02-09T03:48:03.953Z,52.01
2018-02-09T03:49:03.946Z,52.11
2018-02-09T03:50:03.940Z,51.72
2018-02-09T03:51:03.933Z,52.20
2018-02-09T03:52:03.922Z,52.20
2018-02-09T03:53:03.914Z,52.30
2018-02-09T03:54:03.908Z,52.11
2018-02-09T03:55:03.903Z,52.20
2018-02-09T03:56:03.889Z,52.23
2018-02-09T03:57:03.890Z,52.11
2018-02-09T03:58:03.874Z,51.62
2018-02-09T03:59:03.867Z,51.62
2018-02-09T04:00:03.859Z,51.46
2018-02-09T04:01:03.852Z,51.65
2018-02-09T04:02:03.848Z,51.34
2018-02-09T04:03:03.836Z,51.46
2018-02-09T04:04:03.824Z,51.65
2018-02-09T04:05:03.820Z,51.56
2018-02-09T04:06:03.816Z,51.65
2018-02-09T04:07:03.805Z,51.56
2018-02-09T04:08:03.794Z,51.65
2018-02-09T04:09:03.789Z,51.26
2018-02-09T04:10:03.779Z,51.36
2018-02-09T04:11:03.773Z,51.75
2018-02-09T04:12:03.766Z,51.36
2018-02-09T04:13:03.756Z,51.56
2018-02-09T04:14:03.748Z,51.26
2018-02-09T04:15:03.741Z,51.65
2018-02-09T04:16:03.769Z,51.65
2018-02-09T04:17:03.760Z,51.26
2018-02-09T04:18:03.746Z,51.46
2018-02-09T04:19:03.734Z,51.36
2018-02-09T04:20:03.744Z,51.65
2018-02-09T04:21:03.710Z,51.75
2018-02-09T04:22:03.685Z,51.84
2018-02-09T04:23:03.681Z,51.56
2018-02-09T04:24:03.669Z,51.65
2018-02-09T04:25:03.676Z,51.75
2018-02-09T04:26:03.658Z,51.65
2018-02-09T04:27:03.647Z,51.75
2018-02-09T04:28:03.639Z,51.26
2018-02-09T04:29:03.628Z,51.56
2018-02-09T04:30:03.628Z,51.46
2018-02-09T04:31:03.621Z,51.46
2018-02-09T04:32:03.608Z,51.56
2018-02-09T04:33:03.600Z,51.75
2018-02-09T04:34:03.597Z,51.46
2018-02-09T04:35:03.584Z,51.26
2018-02-09T04:36:03.576Z,51.65
2018-02-09T04:37:03.569Z,51.65
2018-02-09T04:38:03.560Z,52.13
2018-02-09T04:39:03.553Z,52.04
2018-02-09T04:40:03.548Z,52.13
2018-02-09T04:41:03.534Z,52.13
2018-02-09T04:42:03.533Z,52.33
2018-02-09T04:43:03.522Z,52.13
2018-02-09T04:44:03.522Z,52.13
2018-02-09T04:45:03.509Z,52.04
2018-02-09T04:46:03.501Z,52.04
2018-02-09T04:47:03.492Z,52.23
2018-02-09T04:48:03.489Z,52.33
2018-02-09T04:49:03.479Z,52.33
2018-02-09T04:50:03.481Z,52.91
2018-02-09T04:51:03.465Z,52.71
2018-02-09T04:52:03.454Z,52.71
2018-02-09T04:53:03.442Z,52.61
2018-02-09T04:54:03.440Z,52.23
2018-02-09T04:55:03.432Z,52.04
2018-02-09T04:56:03.431Z,52.23
2018-02-09T04:57:03.430Z,52.11
2018-02-09T04:58:03.410Z,51.62
2018-02-09T04:59:03.402Z,51.65
2018-02-09T05:00:03.392Z,51.24
2018-02-09T05:01:03.384Z,51.14
2018-02-09T05:02:03.375Z,51.34
2018-02-09T05:03:03.370Z,50.85
2018-02-09T05:04:03.358Z,50.76
2018-02-09T05:05:03.352Z,50.76
2018-02-09T05:06:03.342Z,50.27
2018-02-09T05:07:03.336Z,50.37
2018-02-09T05:08:03.327Z,50.37
2018-02-09T05:09:03.319Z,50.47
2018-02-09T05:10:03.315Z,49.79
2018-02-09T05:11:03.305Z,49.79
2018-02-09T05:12:03.300Z,49.79
2018-02-09T05:13:03.290Z,49.70
2018-02-09T05:14:03.281Z,49.79
2018-02-09T05:15:03.286Z,49.51
2018-02-09T05:16:03.268Z,49.12
2018-02-09T05:17:03.261Z,49.12
2018-02-09T05:18:03.244Z,49.22
2018-02-09T05:19:03.244Z,49.15
2018-02-09T05:20:03.234Z,48.76
2018-02-09T05:21:03.228Z,49.05
2018-02-09T05:22:03.218Z,49.05
2018-02-09T05:23:03.210Z,49.05
2018-02-09T05:24:03.202Z,49.24
2018-02-09T05:25:03.193Z,48.66
2018-02-09T05:26:03.184Z,48.76
2018-02-09T05:27:03.180Z,48.76
2018-02-09T05:28:03.172Z,48.66
2018-02-09T05:29:03.163Z,48.57
2018-02-09T05:30:03.157Z,48.47
2018-02-09T05:31:03.147Z,48.47
2018-02-09T05:32:03.141Z,48.47
2018-02-09T05:33:03.134Z,48.38
2018-02-09T05:34:03.122Z,48.38
2018-02-09T05:35:03.116Z,48.38
2018-02-09T05:36:03.108Z,48.28
2018-02-09T05:37:03.102Z,48.18
2018-02-09T05:38:03.093Z,48.38
2018-02-09T05:39:03.084Z,48.38
2018-02-09T05:40:03.075Z,48.38
2018-02-09T05:41:03.075Z,48.47
2018-02-09T05:42:03.060Z,48.38
2018-02-09T05:43:03.051Z,48.47
2018-02-09T05:44:03.045Z,48.47
2018-02-09T05:45:03.040Z,48.47
2018-02-09T05:46:03.033Z,48.66
2018-02-09T05:47:03.023Z,48.86
2018-02-09T05:48:03.013Z,48.76
2018-02-09T05:49:03.008Z,48.66
2018-02-09T05:50:03.000Z,48.66
2018-02-09T05:51:02.991Z,48.57
2018-02-09T05:52:02.985Z,48.28
2018-02-09T05:53:02.974Z,48.66
2018-02-09T05:54:02.968Z,48.86
2018-02-09T05:55:02.960Z,48.57
2018-02-09T05:56:02.949Z,48.76
2018-02-09T05:57:02.940Z,48.38
2018-02-09T05:58:02.942Z,48.38
2018-02-09T05:59:02.940Z,48.38
2018-02-09T06:00:02.920Z,48.38
2018-02-09T06:01:02.912Z,48.38
2018-02-09T06:02:02.907Z,48.38
2018-02-09T06:03:02.900Z,48.38
2018-02-09T06:04:02.885Z,48.38
2018-02-09T06:05:02.882Z,48.57
2018-02-09T06:06:02.878Z,48.38
2018-02-09T06:07:02.868Z,48.47
2018-02-09T06:08:02.860Z,48.38
2018-02-09T06:09:02.851Z,48.38
2018-02-09T06:10:02.842Z,48.38
2018-02-09T06:11:02.838Z,48.66
2018-02-09T06:12:02.826Z,48.76
2018-02-09T06:13:02.822Z,48.57
2018-02-09T06:14:02.811Z,48.66
2018-02-09T06:15:02.804Z,48.66
2018-02-09T06:16:02.797Z,48.76
2018-02-09T06:17:02.796Z,48.47
2018-02-09T06:18:02.780Z,48.76
2018-02-09T06:19:02.772Z,48.76
2018-02-09T06:20:02.766Z,48.76
2018-02-09T06:21:02.757Z,48.86
2018-02-09T06:22:02.748Z,48.47
2018-02-09T06:23:02.741Z,48.86
2018-02-09T06:24:02.742Z,48.47
2018-02-09T06:25:02.727Z,48.47
2018-02-09T06:26:02.717Z,48.83
2018-02-09T06:27:02.716Z,48.54
2018-02-09T06:28:02.703Z,48.83
2018-02-09T06:29:02.693Z,48.64
2018-02-09T06:30:02.686Z,48.54
2018-02-09T06:31:02.684Z,48.44
2018-02-09T06:32:02.673Z,48.64
2018-02-09T06:33:02.662Z,48.74
2018-02-09T06:34:02.653Z,48.64
2018-02-09T06:35:02.650Z,48.64
2018-02-09T06:36:02.643Z,48.44
2018-02-09T06:37:02.630Z,48.44
2018-02-09T06:38:02.623Z,48.74
2018-02-09T06:39:02.618Z,48.64
2018-02-09T06:40:02.607Z,48.83
2018-02-09T06:41:02.601Z,48.74
2018-02-09T06:42:02.597Z,48.64
2018-02-09T06:43:02.587Z,48.76
2018-02-09T06:44:02.577Z,48.74
2018-02-09T06:45:02.568Z,48.74
2018-02-09T06:46:02.557Z,48.74
2018-02-09T06:47:02.551Z,48.74
2018-02-09T06:48:02.547Z,48.76
2018-02-09T06:49:02.536Z,48.83
2018-02-09T06:50:02.528Z,48.66
2018-02-09T06:51:02.523Z,48.64
2018-02-09T06:52:02.513Z,48.64
2018-02-09T06:53:02.505Z,48.44
2018-02-09T06:54:02.501Z,48.47
2018-02-09T06:55:02.490Z,48.57
2018-02-09T06:56:02.487Z,48.57
2018-02-09T06:57:02.473Z,48.66
2018-02-09T06:58:02.469Z,48.86
2018-02-09T06:59:02.458Z,48.66
2018-02-09T07:00:02.449Z,48.76
2018-02-09T07:01:02.448Z,48.76
2018-02-09T07:02:02.438Z,48.54
2018-02-09T07:03:02.426Z,48.66
2018-02-09T07:04:02.422Z,48.76
2018-02-09T07:05:02.409Z,48.86
2018-02-09T07:06:02.402Z,48.47
2018-02-09T07:07:02.400Z,48.83
2018-02-09T07:08:02.389Z,48.76
2018-02-09T07:09:02.381Z,48.76
2018-02-09T07:10:02.366Z,48.76
2018-02-09T07:11:02.396Z,48.47
2018-02-09T07:12:02.375Z,48.47
2018-02-09T07:13:02.363Z,48.47
2018-02-09T07:14:02.356Z,48.66
2018-02-09T07:15:02.333Z,48.66
2018-02-09T07:16:02.319Z,48.47
2018-02-09T07:17:02.315Z,48.66
2018-02-09T07:18:02.315Z,48.47
2018-02-09T07:19:02.300Z,48.66
2018-02-09T07:20:02.294Z,48.86
2018-02-09T07:21:02.284Z,48.66
2018-02-09T07:22:02.278Z,48.47
2018-02-09T07:23:02.270Z,48.47
2018-02-09T07:24:02.259Z,48.57
2018-02-09T07:25:02.254Z,48.47
2018-02-09T07:26:02.246Z,48.57
2018-02-09T07:27:02.241Z,48.57
2018-02-09T07:28:02.229Z,48.38
2018-02-09T07:29:02.221Z,48.57
2018-02-09T07:30:02.216Z,48.47
2018-02-09T07:31:02.206Z,48.57
2018-02-09T07:32:02.198Z,48.44
2018-02-09T07:33:02.195Z,48.47
2018-02-09T07:34:02.186Z,48.38
2018-02-09T07:35:02.171Z,48.38
2018-02-09T07:36:02.166Z,48.47
2018-02-09T07:37:02.157Z,48.38
2018-02-09T07:38:02.203Z,48.35
2018-02-09T07:39:02.145Z,48.38
2018-02-09T07:40:02.139Z,48.44
2018-02-09T07:41:02.128Z,48.35
2018-02-09T07:42:02.119Z,48.18
2018-02-09T07:43:02.112Z,48.47
2018-02-09T07:44:02.107Z,48.38
2018-02-09T07:45:02.095Z,48.18
2018-02-09T07:46:02.088Z,48.57
2018-02-09T07:47:02.081Z,48.38
2018-02-09T07:48:02.068Z,48.28
2018-02-09T07:49:02.064Z,48.38
2018-02-09T07:50:02.058Z,48.28
2018-02-09T07:51:02.050Z,48.38
2018-02-09T07:52:02.041Z,48.44
2018-02-09T07:53:02.036Z,48.28
2018-02-09T07:54:02.025Z,48.25
2018-02-09T07:55:02.021Z,48.44
2018-02-09T07:56:02.016Z,48.54
2018-02-09T07:57:02.005Z,48.16
2018-02-09T07:58:01.997Z,48.54
2018-02-09T07:59:01.987Z,48.35
2018-02-09T08:00:01.993Z,48.35
2018-02-09T08:01:01.968Z,48.35
2018-02-09T08:02:01.961Z,48.38
2018-02-09T08:03:01.961Z,48.44
2018-02-09T08:04:01.949Z,48.35
2018-02-09T08:05:01.940Z,48.35
2018-02-09T08:06:01.930Z,48.25
2018-02-09T08:07:01.924Z,48.25
2018-02-09T08:08:01.914Z,48.35
2018-02-09T08:09:01.920Z,48.25
2018-02-09T08:10:01.900Z,48.28
2018-02-09T08:11:01.893Z,48.25
2018-02-09T08:12:01.885Z,48.25
2018-02-09T08:13:01.873Z,48.28
2018-02-09T08:14:01.867Z,48.44
2018-02-09T08:15:01.865Z,48.25
2018-02-09T08:16:01.852Z,48.38
2018-02-09T08:17:01.845Z,48.38
2018-02-09T08:18:01.843Z,48.47
2018-02-09T08:19:01.829Z,48.35
2018-02-09T08:20:01.848Z,48.35
2018-02-09T08:21:01.813Z,48.35
2018-02-09T08:22:01.807Z,48.35
2018-02-09T08:23:01.798Z,48.57
2018-02-09T08:24:01.788Z,48.06
2018-02-09T08:25:01.780Z,48.44
2018-02-09T08:26:01.773Z,48.44
2018-02-09T08:27:01.768Z,48.38
2018-02-09T08:28:01.757Z,48.38
2018-02-09T08:29:01.755Z,48.54
2018-02-09T08:30:01.741Z,48.44
2018-02-09T08:31:01.735Z,48.57
2018-02-09T08:32:01.725Z,48.25
2018-02-09T08:33:01.718Z,48.54
2018-02-09T08:34:01.717Z,48.25
2018-02-09T08:35:01.707Z,47.80
2018-02-09T08:36:01.697Z,47.89
2018-02-09T08:37:01.688Z,47.99
2018-02-09T08:38:01.679Z,47.89
2018-02-09T08:39:01.671Z,47.80
2018-02-09T08:40:01.666Z,47.99
2018-02-09T08:41:01.655Z,47.97
2018-02-09T08:42:01.649Z,47.80
2018-02-09T08:43:01.639Z,47.99
2018-02-09T08:44:01.632Z,48.08
2018-02-09T08:45:01.623Z,48.06
2018-02-09T08:46:01.636Z,47.97
2018-02-09T08:47:01.610Z,48.06
2018-02-09T08:48:01.599Z,47.97
2018-02-09T08:49:01.591Z,47.87
2018-02-09T08:50:01.586Z,47.80
2018-02-09T08:51:01.575Z,48.06
2018-02-09T08:52:01.570Z,47.77
2018-02-09T08:53:01.560Z,47.87
2018-02-09T08:54:01.554Z,47.87
2018-02-09T08:55:01.546Z,47.99
2018-02-09T08:56:01.540Z,47.80
2018-02-09T08:57:01.530Z,47.87
2018-02-09T08:58:01.523Z,47.99
2018-02-09T08:59:01.514Z,47.80
2018-02-09T09:00:01.506Z,47.99
2018-02-09T09:01:01.514Z,48.28
2018-02-09T09:02:01.492Z,47.89
2018-02-09T09:03:01.482Z,48.08
2018-02-09T09:04:01.476Z,47.99
2018-02-09T09:05:01.476Z,48.28
2018-02-09T09:06:01.461Z,47.99
2018-02-09T09:07:01.452Z,47.80
2018-02-09T09:08:01.448Z,47.77
2018-02-09T09:09:01.438Z,48.08
2018-02-09T09:10:01.429Z,48.47
2018-02-09T09:11:01.440Z,48.47
2018-02-09T09:12:01.413Z,48.08
2018-02-09T09:13:01.405Z,47.80
2018-02-09T09:14:01.390Z,47.80
2018-02-09T09:15:01.386Z,48.08
2018-02-09T09:16:01.378Z,47.70
2018-02-09T09:17:01.377Z,47.99
2018-02-09T09:18:01.368Z,48.08
2018-02-09T09:19:01.359Z,48.08
2018-02-09T09:20:01.388Z,48.08
2018-02-09T09:21:01.343Z,48.18
2018-02-09T09:22:01.334Z,48.18
2018-02-09T09:23:01.337Z,48.08
2018-02-09T09:24:01.321Z,48.18
2018-02-09T09:25:01.311Z,47.89
2018-02-09T09:26:01.303Z,47.99
2018-02-09T09:27:01.297Z,47.99
2018-02-09T09:28:01.285Z,47.99
2018-02-09T09:29:01.277Z,48.06
2018-02-09T09:30:01.279Z,47.99
2018-02-09T09:31:01.269Z,47.80
2018-02-09T09:32:01.254Z,48.25
2018-02-09T09:33:01.249Z,48.28
2018-02-09T09:34:01.242Z,48.28
2018-02-09T09:35:01.231Z,48.28
2018-02-09T09:36:01.231Z,47.80
2018-02-09T09:37:01.222Z,47.99
2018-02-09T09:38:01.212Z,48.08
2018-02-09T09:39:01.194Z,47.97
2018-02-09T09:40:01.190Z,48.28
2018-02-09T09:41:01.187Z,47.99
2018-02-09T09:42:01.188Z,47.99
2018-02-09T09:43:01.170Z,47.80
2018-02-09T09:44:01.161Z,47.80
2018-02-09T09:45:01.152Z,47.99
2018-02-09T09:46:01.146Z,47.99
2018-02-09T09:47:01.133Z,47.70
2018-02-09T09:48:01.134Z,47.60
2018-02-09T09:49:01.124Z,47.60
2018-02-09T09:50:01.114Z,47.51
2018-02-09T09:51:01.109Z,47.51
2018-02-09T09:52:01.101Z,47.70
2018-02-09T09:53:01.088Z,47.51
2018-02-09T09:54:01.082Z,47.31
2018-02-09T09:55:01.074Z,47.60
2018-02-09T09:56:01.068Z,47.51
2018-02-09T09:57:01.059Z,47.60
2018-02-09T09:58:01.051Z,47.22
2018-02-09T09:59:01.043Z,47.60
2018-02-09T10:00:01.038Z,47.70
2018-02-09T10:01:01.028Z,47.70
2018-02-09T10:02:01.024Z,47.70
2018-02-09T10:03:01.017Z,47.70
2018-02-09T10:04:01.004Z,47.70
2018-02-09T10:05:00.995Z,47.60
2018-02-09T10:06:00.994Z,47.70
2018-02-09T10:07:00.988Z,47.60
2018-02-09T10:08:00.973Z,47.51
2018-02-09T10:09:00.965Z,47.60
2018-02-09T10:10:00.957Z,47.49
2018-02-09T10:11:00.948Z,47.41
2018-02-09T10:12:00.943Z,47.51
2018-02-09T10:13:00.939Z,47.51
2018-02-09T10:14:00.928Z,47.51
2018-02-09T10:15:00.917Z,47.51
2018-02-09T10:16:00.913Z,47.60
2018-02-09T10:17:00.915Z,47.60
2018-02-09T10:18:00.898Z,47.51
2018-02-09T10:19:00.891Z,47.51
2018-02-09T10:20:00.876Z,47.31
2018-02-09T10:21:00.870Z,47.70
2018-02-09T10:22:00.861Z,47.80
2018-02-09T10:23:00.855Z,47.70
2018-02-09T10:24:00.846Z,47.80
2018-02-09T10:25:00.836Z,47.89
2018-02-09T10:26:00.829Z,47.80
2018-02-09T10:27:00.823Z,47.80
2018-02-09T10:28:00.813Z,47.70
2018-02-09T10:29:00.803Z,47.51
2018-02-09T10:30:00.798Z,47.22
2018-02-09T10:31:00.791Z,47.41
2018-02-09T10:32:00.795Z,47.41
2018-02-09T10:33:00.775Z,47.31
2018-02-09T10:34:00.768Z,47.31
2018-02-09T10:35:00.763Z,47.31
2018-02-09T10:36:00.753Z,47.22
2018-02-09T10:37:00.744Z,47.12
2018-02-09T10:38:00.742Z,47.41
2018-02-09T10:39:00.731Z,47.22
2018-02-09T10:40:00.720Z,47.41
2018-02-09T10:41:00.709Z,47.31
2018-02-09T10:42:00.702Z,47.22
2018-02-09T10:43:00.695Z,47.12
2018-02-09T10:44:00.694Z,47.41
2018-02-09T10:45:00.683Z,47.31
2018-02-09T10:46:00.694Z,47.22
2018-02-09T10:47:00.666Z,47.31
2018-02-09T10:48:00.659Z,46.93
2018-02-09T10:49:00.649Z,46.93
2018-02-09T10:50:00.642Z,46.83
2018-02-09T10:51:00.643Z,47.22
2018-02-09T10:52:00.627Z,47.12
2018-02-09T10:53:00.620Z,46.73
2018-02-09T10:54:00.606Z,47.12
2018-02-09T10:55:00.603Z,46.93
2018-02-09T10:56:00.598Z,47.22
2018-02-09T10:57:00.587Z,47.22
2018-02-09T10:58:00.581Z,47.22
2018-02-09T10:59:00.572Z,47.31
2018-02-09T11:00:00.567Z,47.03
2018-02-09T11:01:00.556Z,47.31
2018-02-09T11:02:00.543Z,46.73
2018-02-09T11:03:00.556Z,47.12
2018-02-09T11:04:00.538Z,46.93
2018-02-09T11:05:00.518Z,47.31
2018-02-09T11:06:00.518Z,47.41
2018-02-09T11:07:00.528Z,47.41
2018-02-09T11:08:00.501Z,47.12
2018-02-09T11:09:00.496Z,47.22
2018-02-09T11:10:00.486Z,47.22
2018-02-09T11:11:00.478Z,47.22
2018-02-09T11:12:00.473Z,47.41
2018-02-09T11:13:00.459Z,47.22
2018-02-09T11:14:00.460Z,47.31
2018-02-09T11:15:00.448Z,47.31
2018-02-09T11:16:00.440Z,47.31
2018-02-09T11:17:00.429Z,47.51
2018-02-09T11:18:00.430Z,47.51
2018-02-09T11:19:00.429Z,47.31
2018-02-09T11:20:00.408Z,47.31
2018-02-09T11:21:00.404Z,47.22
2018-02-09T11:22:00.392Z,47.41
2018-02-09T11:23:00.385Z,47.22
2018-02-09T11:24:00.377Z,47.41
2018-02-09T11:25:00.372Z,47.31
2018-02-09T11:26:00.364Z,47.31
2018-02-09T11:27:00.352Z,47.22
2018-02-09T11:28:00.345Z,47.31
2018-02-09T11:29:00.342Z,47.12
2018-02-09T11:30:00.330Z,47.12
2018-02-09T11:31:00.324Z,47.12
2018-02-09T11:32:00.312Z,47.41
2018-02-09T11:33:00.310Z,47.31
2018-02-09T11:34:00.303Z,46.93
2018-02-09T11:35:00.290Z,47.03
2018-02-09T11:36:00.283Z,46.73
2018-02-09T11:37:00.275Z,47.31
2018-02-09T11:38:00.267Z,47.03
2018-02-09T11:39:00.258Z,47.03
2018-02-09T11:40:00.257Z,46.93
2018-02-09T11:41:00.246Z,46.93
2018-02-09T11:42:00.229Z,46.93
2018-02-09T11:43:00.229Z,47.03
2018-02-09T11:44:00.222Z,47.03
2018-02-09T11:45:00.221Z,47.03
2018-02-09T11:46:00.204Z,47.22
2018-02-09T11:47:00.196Z,46.93
2018-02-09T11:48:00.199Z,46.83
2018-02-09T11:49:00.181Z,46.83
2018-02-09T11:50:00.174Z,46.93
2018-02-09T11:51:00.171Z,47.03
2018-02-09T11:52:00.158Z,46.64
2018-02-09T11:53:00.177Z,46.93
2018-02-09T11:54:00.141Z,46.64
2018-02-09T11:55:00.136Z,46.83
2018-02-09T11:56:00.127Z,47.12
2018-02-09T11:57:00.116Z,47.03
2018-02-09T11:58:00.118Z,46.83
2018-02-09T11:59:00.107Z,46.83
2018-02-09T12:00:00.093Z,46.83
2018-02-09T12:01:00.084Z,47.12
2018-02-09T12:02:00.084Z,46.93
2018-02-09T12:03:00.075Z,47.03
2018-02-09T12:04:00.072Z,47.03
2018-02-09T12:05:00.060Z,46.93
2018-02-09T12:06:00.052Z,46.64
2018-02-09T12:07:00.066Z,47.12
2018-02-09T12:08:00.028Z,46.64
2018-02-09T12:09:00.027Z,46.93
2018-02-09T12:10:00.026Z,46.64
2018-02-09T12:11:00.014Z,47.03
2018-02-09T12:12:00.001Z,47.03
2018-02-09T12:12:59.998Z,47.03
2018-02-09T12:13:59.991Z,47.03
2018-02-09T12:14:59.978Z,47.03
2018-02-09T12:15:59.969Z,47.03
2018-02-09T12:16:59.964Z,46.93
2018-02-09T12:17:59.955Z,47.03
2018-02-09T12:18:59.952Z,47.03
2018-02-09T12:19:59.940Z,46.64
2018-02-09T12:20:59.938Z,47.22
2018-02-09T12:21:59.921Z,46.64
2018-02-09T12:22:59.916Z,46.93
2018-02-09T12:23:59.915Z,46.83
2018-02-09T12:24:59.899Z,46.55
2018-02-09T12:25:59.891Z,47.03
2018-02-09T12:26:59.887Z,46.83
2018-02-09T12:27:59.875Z,46.64
2018-02-09T12:28:59.869Z,46.64
2018-02-09T12:29:59.865Z,46.55
2018-02-09T12:30:59.854Z,46.73
2018-02-09T12:31:59.845Z,46.83
2018-02-09T12:32:59.839Z,46.93
2018-02-09T12:33:59.828Z,46.73
2018-02-09T12:34:59.824Z,46.73
2018-02-09T12:35:59.818Z,46.64
2018-02-09T12:36:59.804Z,46.93
2018-02-09T12:37:59.817Z,46.73
2018-02-09T12:38:59.791Z,46.93
2018-02-09T12:39:59.780Z,47.12
2018-02-09T12:40:59.778Z,46.93
2018-02-09T12:41:59.766Z,47.03
2018-02-09T12:42:59.759Z,46.45
2018-02-09T12:43:59.758Z,46.73
2018-02-09T12:44:59.746Z,46.73
2018-02-09T12:45:59.742Z,46.73
2018-02-09T12:46:59.727Z,46.64
2018-02-09T12:47:59.719Z,46.73
2018-02-09T12:48:59.721Z,47.12
2018-02-09T12:49:59.706Z,46.64
2018-02-09T12:50:59.701Z,46.64
2018-02-09T12:51:59.847Z,46.55